sensor_id;sensor_type;location;lat;lon;timestamp;temperature;humidity
27314;DHT22;14800;48.174;9.798;2023-10-31T00:00:38;12.70;90.60
27314;DHT22;14800;48.174;9.798;2023-10-31T00:03:03;12.70;91.00
27314;DHT22;14800;48.174;9.798;2023-10-31T00:05:29;12.70;90.60
27314;DHT22;14800;48.174;9.798;2023-10-31T00:07:54;12.70;90.70
27314;DHT22;14800;48.174;9.798;2023-10-31T00:10:20;12.60;90.60
27314;DHT22;14800;48.174;9.798;2023-10-31T00:12:46;12.60;91.00
27314;DHT22;14800;48.174;9.798;2023-10-31T00:15:11;12.60;90.70
27314;DHT22;14800;48.174;9.798;2023-10-31T00:17:37;12.60;90.70
27314;DHT22;14800;48.174;9.798;2023-10-31T00:20:02;12.60;90.70
27314;DHT22;14800;48.174;9.798;2023-10-31T00:22:28;12.60;90.70
27314;DHT22;14800;48.174;9.798;2023-10-31T00:24:54;12.60;90.80
27314;DHT22;14800;48.174;9.798;2023-10-31T00:27:19;12.60;90.80
27314;DHT22;14800;48.174;9.798;2023-10-31T00:29:45;12.50;90.80
27314;DHT22;14800;48.174;9.798;2023-10-31T00:32:11;12.50;90.80
27314;DHT22;14800;48.174;9.798;2023-10-31T00:34:36;12.50;90.90
27314;DHT22;14800;48.174;9.798;2023-10-31T00:37:02;12.50;90.90
27314;DHT22;14800;48.174;9.798;2023-10-31T00:39:28;12.50;91.00
27314;DHT22;14800;48.174;9.798;2023-10-31T00:41:53;12.50;91.00
27314;DHT22;14800;48.174;9.798;2023-10-31T00:44:19;12.50;91.00
27314;DHT22;14800;48.174;9.798;2023-10-31T00:46:45;12.50;91.00
27314;DHT22;14800;48.174;9.798;2023-10-31T00:49:10;12.50;91.00
27314;DHT22;14800;48.174;9.798;2023-10-31T00:51:36;12.50;91.00
27314;DHT22;14800;48.174;9.798;2023-10-31T00:54:01;12.50;91.00
27314;DHT22;14800;48.174;9.798;2023-10-31T00:56:27;12.50;91.00
27314;DHT22;14800;48.174;9.798;2023-10-31T00:58:52;12.50;91.00
27314;DHT22;14800;48.174;9.798;2023-10-31T01:01:18;12.50;91.00
27314;DHT22;14800;48.174;9.798;2023-10-31T01:03:44;12.50;91.00
27314;DHT22;14800;48.174;9.798;2023-10-31T01:06:09;12.50;91.10
27314;DHT22;14800;48.174;9.798;2023-10-31T01:08:35;12.50;91.10
27314;DHT22;14800;48.174;9.798;2023-10-31T01:11:01;12.50;91.10
27314;DHT22;14800;48.174;9.798;2023-10-31T01:13:26;12.50;91.10
27314;DHT22;14800;48.174;9.798;2023-10-31T01:15:52;12.50;91.10
27314;DHT22;14800;48.174;9.798;2023-10-31T01:18:17;12.60;91.10
27314;DHT22;14800;48.174;9.798;2023-10-31T01:20:43;12.50;91.00
27314;DHT22;14800;48.174;9.798;2023-10-31T01:23:09;12.50;91.00
27314;DHT22;14800;48.174;9.798;2023-10-31T01:25:34;12.50;90.90
27314;DHT22;14800;48.174;9.798;2023-10-31T01:28:00;12.60;91.00
27314;DHT22;14800;48.174;9.798;2023-10-31T01:30:25;12.60;91.00
27314;DHT22;14800;48.174;9.798;2023-10-31T01:32:51;12.60;91.00
27314;DHT22;14800;48.174;9.798;2023-10-31T01:35:16;12.60;91.00
27314;DHT22;14800;48.174;9.798;2023-10-31T01:37:42;12.60;90.90
27314;DHT22;14800;48.174;9.798;2023-10-31T01:40:08;12.60;90.90
27314;DHT22;14800;48.174;9.798;2023-10-31T01:42:33;12.50;90.90
27314;DHT22;14800;48.174;9.798;2023-10-31T01:44:59;12.50;90.90
27314;DHT22;14800;48.174;9.798;2023-10-31T01:47:24;12.50;90.90
27314;DHT22;14800;48.174;9.798;2023-10-31T01:49:51;12.50;91.00
27314;DHT22;14800;48.174;9.798;2023-10-31T01:52:17;12.50;91.00
27314;DHT22;14800;48.174;9.798;2023-10-31T01:54:44;12.50;91.00
27314;DHT22;14800;48.174;9.798;2023-10-31T01:57:10;12.50;90.90
27314;DHT22;14800;48.174;9.798;2023-10-31T01:59:36;12.60;90.90
27314;DHT22;14800;48.174;9.798;2023-10-31T02:02:02;12.50;90.90
27314;DHT22;14800;48.174;9.798;2023-10-31T02:04:28;12.60;91.30
27314;DHT22;14800;48.174;9.798;2023-10-31T02:06:54;12.50;90.80
27314;DHT22;14800;48.174;9.798;2023-10-31T02:09:20;12.50;90.80
27314;DHT22;14800;48.174;9.798;2023-10-31T02:11:49;12.50;90.80
27314;DHT22;14800;48.174;9.798;2023-10-31T02:14:15;12.50;90.80
27314;DHT22;14800;48.174;9.798;2023-10-31T02:16:41;12.50;90.80
27314;DHT22;14800;48.174;9.798;2023-10-31T02:19:07;12.50;90.70
27314;DHT22;14800;48.174;9.798;2023-10-31T02:21:32;12.50;90.70
27314;DHT22;14800;48.174;9.798;2023-10-31T02:23:59;12.50;90.70
27314;DHT22;14800;48.174;9.798;2023-10-31T02:26:32;12.50;90.60
27314;DHT22;14800;48.174;9.798;2023-10-31T02:28:58;12.50;90.60
27314;DHT22;14800;48.174;9.798;2023-10-31T02:31:25;12.50;90.60
27314;DHT22;14800;48.174;9.798;2023-10-31T02:33:50;12.40;90.60
27314;DHT22;14800;48.174;9.798;2023-10-31T02:36:16;12.40;90.50
27314;DHT22;14800;48.174;9.798;2023-10-31T02:38:42;12.40;90.50
27314;DHT22;14800;48.174;9.798;2023-10-31T02:41:08;12.40;90.50
27314;DHT22;14800;48.174;9.798;2023-10-31T02:43:33;12.40;90.50
27314;DHT22;14800;48.174;9.798;2023-10-31T02:45:59;12.40;90.40
27314;DHT22;14800;48.174;9.798;2023-10-31T02:48:26;12.40;90.40
27314;DHT22;14800;48.174;9.798;2023-10-31T02:50:51;12.40;90.40
27314;DHT22;14800;48.174;9.798;2023-10-31T02:53:20;12.40;90.40
27314;DHT22;14800;48.174;9.798;2023-10-31T02:55:46;12.30;90.40
27314;DHT22;14800;48.174;9.798;2023-10-31T02:58:11;12.30;90.30
27314;DHT22;14800;48.174;9.798;2023-10-31T03:00:37;12.30;90.30
27314;DHT22;14800;48.174;9.798;2023-10-31T03:03:03;12.30;90.30
27314;DHT22;14800;48.174;9.798;2023-10-31T03:05:28;12.30;90.30
27314;DHT22;14800;48.174;9.798;2023-10-31T03:07:54;12.30;90.30
27314;DHT22;14800;48.174;9.798;2023-10-31T03:10:20;12.30;90.20
27314;DHT22;14800;48.174;9.798;2023-10-31T03:12:47;12.20;90.20
27314;DHT22;14800;48.174;9.798;2023-10-31T03:15:12;12.20;90.20
27314;DHT22;14800;48.174;9.798;2023-10-31T03:17:38;12.20;90.10
27314;DHT22;14800;48.174;9.798;2023-10-31T03:20:04;12.20;90.10
27314;DHT22;14800;48.174;9.798;2023-10-31T03:22:30;12.20;90.10
27314;DHT22;14800;48.174;9.798;2023-10-31T03:24:55;12.20;90.00
27314;DHT22;14800;48.174;9.798;2023-10-31T03:27:21;12.10;90.00
27314;DHT22;14800;48.174;9.798;2023-10-31T03:29:46;12.10;90.00
27314;DHT22;14800;48.174;9.798;2023-10-31T03:32:12;12.10;90.00
27314;DHT22;14800;48.174;9.798;2023-10-31T03:34:38;12.10;90.00
27314;DHT22;14800;48.174;9.798;2023-10-31T03:37:04;12.10;90.00
27314;DHT22;14800;48.174;9.798;2023-10-31T03:39:30;12.10;90.00
27314;DHT22;14800;48.174;9.798;2023-10-31T03:41:55;12.10;90.00
27314;DHT22;14800;48.174;9.798;2023-10-31T03:44:21;12.10;89.80
27314;DHT22;14800;48.174;9.798;2023-10-31T03:46:46;12.10;89.70
27314;DHT22;14800;48.174;9.798;2023-10-31T03:49:12;12.10;89.80
27314;DHT22;14800;48.174;9.798;2023-10-31T03:51:37;12.00;89.70
27314;DHT22;14800;48.174;9.798;2023-10-31T03:54:03;12.00;89.60
27314;DHT22;14800;48.174;9.798;2023-10-31T03:56:29;12.00;89.50
27314;DHT22;14800;48.174;9.798;2023-10-31T03:58:54;12.00;89.60
27314;DHT22;14800;48.174;9.798;2023-10-31T04:01:20;12.00;89.60
27314;DHT22;14800;48.174;9.798;2023-10-31T04:03:45;12.00;89.50
27314;DHT22;14800;48.174;9.798;2023-10-31T04:06:11;12.00;89.60
27314;DHT22;14800;48.174;9.798;2023-10-31T04:08:37;12.00;89.50
27314;DHT22;14800;48.174;9.798;2023-10-31T04:11:03;12.00;89.50
27314;DHT22;14800;48.174;9.798;2023-10-31T04:13:28;11.90;89.60
27314;DHT22;14800;48.174;9.798;2023-10-31T04:15:54;12.00;89.70
27314;DHT22;14800;48.174;9.798;2023-10-31T04:18:20;11.90;89.60
27314;DHT22;14800;48.174;9.798;2023-10-31T04:20:45;11.90;89.50
27314;DHT22;14800;48.174;9.798;2023-10-31T04:23:11;11.90;89.50
27314;DHT22;14800;48.174;9.798;2023-10-31T04:25:37;12.00;89.50
27314;DHT22;14800;48.174;9.798;2023-10-31T04:28:03;11.90;89.40
27314;DHT22;14800;48.174;9.798;2023-10-31T04:30:29;11.90;89.40
27314;DHT22;14800;48.174;9.798;2023-10-31T04:32:54;11.90;89.40
27314;DHT22;14800;48.174;9.798;2023-10-31T04:35:20;11.90;89.30
27314;DHT22;14800;48.174;9.798;2023-10-31T04:37:45;11.90;89.30
27314;DHT22;14800;48.174;9.798;2023-10-31T04:40:12;11.90;89.40
27314;DHT22;14800;48.174;9.798;2023-10-31T04:42:40;11.90;89.40
27314;DHT22;14800;48.174;9.798;2023-10-31T04:45:07;11.90;89.50
27314;DHT22;14800;48.174;9.798;2023-10-31T04:47:33;11.90;89.50
27314;DHT22;14800;48.174;9.798;2023-10-31T04:49:58;11.90;89.40
27314;DHT22;14800;48.174;9.798;2023-10-31T04:52:24;11.90;89.30
27314;DHT22;14800;48.174;9.798;2023-10-31T04:54:51;11.90;89.30
27314;DHT22;14800;48.174;9.798;2023-10-31T04:57:17;11.80;89.20
27314;DHT22;14800;48.174;9.798;2023-10-31T04:59:42;11.80;89.20
27314;DHT22;14800;48.174;9.798;2023-10-31T05:02:08;11.80;89.20
27314;DHT22;14800;48.174;9.798;2023-10-31T05:04:34;11.80;89.20
27314;DHT22;14800;48.174;9.798;2023-10-31T05:07:03;11.80;89.20
27314;DHT22;14800;48.174;9.798;2023-10-31T05:09:28;11.80;89.20
27314;DHT22;14800;48.174;9.798;2023-10-31T05:11:54;11.80;89.20
27314;DHT22;14800;48.174;9.798;2023-10-31T05:14:19;11.70;89.10
27314;DHT22;14800;48.174;9.798;2023-10-31T05:16:45;11.70;89.10
27314;DHT22;14800;48.174;9.798;2023-10-31T05:19:11;11.70;89.10
27314;DHT22;14800;48.174;9.798;2023-10-31T05:21:36;11.70;89.00
27314;DHT22;14800;48.174;9.798;2023-10-31T05:24:02;11.70;89.10
27314;DHT22;14800;48.174;9.798;2023-10-31T05:26:28;11.70;89.00
27314;DHT22;14800;48.174;9.798;2023-10-31T05:28:55;11.70;89.00
27314;DHT22;14800;48.174;9.798;2023-10-31T05:31:22;11.70;88.90
27314;DHT22;14800;48.174;9.798;2023-10-31T05:33:47;11.60;88.80
27314;DHT22;14800;48.174;9.798;2023-10-31T05:36:25;11.60;88.70
27314;DHT22;14800;48.174;9.798;2023-10-31T05:38:51;11.60;88.50
27314;DHT22;14800;48.174;9.798;2023-10-31T05:41:16;11.60;88.60
27314;DHT22;14800;48.174;9.798;2023-10-31T05:43:42;11.60;88.60
27314;DHT22;14800;48.174;9.798;2023-10-31T05:46:08;11.60;88.50
27314;DHT22;14800;48.174;9.798;2023-10-31T05:48:46;11.50;88.40
27314;DHT22;14800;48.174;9.798;2023-10-31T05:51:16;11.60;88.50
27314;DHT22;14800;48.174;9.798;2023-10-31T05:53:43;11.50;88.30
27314;DHT22;14800;48.174;9.798;2023-10-31T05:56:10;11.50;88.50
27314;DHT22;14800;48.174;9.798;2023-10-31T05:58:40;11.50;88.40
27314;DHT22;14800;48.174;9.798;2023-10-31T06:01:05;11.50;88.30
27314;DHT22;14800;48.174;9.798;2023-10-31T06:03:32;11.50;88.30
27314;DHT22;14800;48.174;9.798;2023-10-31T06:05:58;11.40;88.30
27314;DHT22;14800;48.174;9.798;2023-10-31T06:08:23;11.40;88.20
27314;DHT22;14800;48.174;9.798;2023-10-31T06:10:50;11.40;88.10
27314;DHT22;14800;48.174;9.798;2023-10-31T06:13:16;11.40;88.10
27314;DHT22;14800;48.174;9.798;2023-10-31T06:15:42;11.40;88.20
27314;DHT22;14800;48.174;9.798;2023-10-31T06:18:08;11.40;88.30
27314;DHT22;14800;48.174;9.798;2023-10-31T06:20:33;11.30;88.20
27314;DHT22;14800;48.174;9.798;2023-10-31T06:23:00;11.30;88.20
27314;DHT22;14800;48.174;9.798;2023-10-31T06:25:29;11.30;88.10
27314;DHT22;14800;48.174;9.798;2023-10-31T06:27:55;11.30;88.10
27314;DHT22;14800;48.174;9.798;2023-10-31T06:30:20;11.30;88.10
27314;DHT22;14800;48.174;9.798;2023-10-31T06:32:46;11.30;88.10
27314;DHT22;14800;48.174;9.798;2023-10-31T06:35:12;11.30;88.10
27314;DHT22;14800;48.174;9.798;2023-10-31T06:37:37;11.30;88.10
27314;DHT22;14800;48.174;9.798;2023-10-31T06:40:04;11.30;88.00
27314;DHT22;14800;48.174;9.798;2023-10-31T06:42:30;11.30;88.00
27314;DHT22;14800;48.174;9.798;2023-10-31T06:44:56;11.30;87.90
27314;DHT22;14800;48.174;9.798;2023-10-31T06:47:21;11.30;87.80
27314;DHT22;14800;48.174;9.798;2023-10-31T06:49:47;11.30;87.80
27314;DHT22;14800;48.174;9.798;2023-10-31T06:52:12;11.30;87.70
27314;DHT22;14800;48.174;9.798;2023-10-31T06:54:38;11.30;87.70
27314;DHT22;14800;48.174;9.798;2023-10-31T06:57:03;11.30;87.70
27314;DHT22;14800;48.174;9.798;2023-10-31T06:59:29;11.30;87.80
27314;DHT22;14800;48.174;9.798;2023-10-31T07:01:55;11.30;88.60
27314;DHT22;14800;48.174;9.798;2023-10-31T07:04:20;11.30;87.80
27314;DHT22;14800;48.174;9.798;2023-10-31T07:06:46;11.30;87.80
27314;DHT22;14800;48.174;9.798;2023-10-31T07:09:12;11.30;87.80
27314;DHT22;14800;48.174;9.798;2023-10-31T07:11:37;11.30;87.70
27314;DHT22;14800;48.174;9.798;2023-10-31T07:14:03;11.30;87.70
27314;DHT22;14800;48.174;9.798;2023-10-31T07:16:32;11.30;87.80
27314;DHT22;14800;48.174;9.798;2023-10-31T07:18:57;11.30;87.80
27314;DHT22;14800;48.174;9.798;2023-10-31T07:21:23;11.30;87.70
27314;DHT22;14800;48.174;9.798;2023-10-31T07:23:48;11.30;87.80
27314;DHT22;14800;48.174;9.798;2023-10-31T07:26:14;11.30;87.80
27314;DHT22;14800;48.174;9.798;2023-10-31T07:28:40;11.30;87.80
27314;DHT22;14800;48.174;9.798;2023-10-31T07:31:06;11.40;87.90
27314;DHT22;14800;48.174;9.798;2023-10-31T07:33:32;11.40;87.80
27314;DHT22;14800;48.174;9.798;2023-10-31T07:35:58;11.40;87.80
27314;DHT22;14800;48.174;9.798;2023-10-31T07:38:23;11.40;87.80
27314;DHT22;14800;48.174;9.798;2023-10-31T07:40:49;11.40;87.80
27314;DHT22;14800;48.174;9.798;2023-10-31T07:43:15;11.40;87.80
27314;DHT22;14800;48.174;9.798;2023-10-31T07:45:41;11.40;87.80
27314;DHT22;14800;48.174;9.798;2023-10-31T07:48:08;11.40;87.70
27314;DHT22;14800;48.174;9.798;2023-10-31T07:50:34;11.50;87.80
27314;DHT22;14800;48.174;9.798;2023-10-31T07:52:59;11.50;87.80
27314;DHT22;14800;48.174;9.798;2023-10-31T07:55:25;11.50;87.80
27314;DHT22;14800;48.174;9.798;2023-10-31T07:57:50;11.50;87.80
27314;DHT22;14800;48.174;9.798;2023-10-31T08:00:16;11.50;87.80
27314;DHT22;14800;48.174;9.798;2023-10-31T08:02:42;11.50;87.90
27314;DHT22;14800;48.174;9.798;2023-10-31T08:05:07;11.50;87.80
27314;DHT22;14800;48.174;9.798;2023-10-31T08:07:33;11.60;87.80
27314;DHT22;14800;48.174;9.798;2023-10-31T08:09:59;11.70;87.90
27314;DHT22;14800;48.174;9.798;2023-10-31T08:12:24;11.60;87.80
27314;DHT22;14800;48.174;9.798;2023-10-31T08:14:50;11.60;88.60
27314;DHT22;14800;48.174;9.798;2023-10-31T08:17:15;11.60;87.80
27314;DHT22;14800;48.174;9.798;2023-10-31T08:19:41;11.60;87.80
27314;DHT22;14800;48.174;9.798;2023-10-31T08:22:08;11.70;87.80
27314;DHT22;14800;48.174;9.798;2023-10-31T08:24:33;11.70;87.70
27314;DHT22;14800;48.174;9.798;2023-10-31T08:27:01;11.70;87.60
27314;DHT22;14800;48.174;9.798;2023-10-31T08:29:27;11.70;87.70
27314;DHT22;14800;48.174;9.798;2023-10-31T08:31:53;11.80;87.60
27314;DHT22;14800;48.174;9.798;2023-10-31T08:34:18;11.80;87.50
27314;DHT22;14800;48.174;9.798;2023-10-31T08:36:44;11.80;87.50
27314;DHT22;14800;48.174;9.798;2023-10-31T08:39:09;11.90;87.50
27314;DHT22;14800;48.174;9.798;2023-10-31T08:41:35;11.90;87.40
27314;DHT22;14800;48.174;9.798;2023-10-31T08:44:02;11.90;87.40
27314;DHT22;14800;48.174;9.798;2023-10-31T08:46:28;11.90;87.40
27314;DHT22;14800;48.174;9.798;2023-10-31T08:48:54;11.90;87.20
27314;DHT22;14800;48.174;9.798;2023-10-31T08:51:20;12.00;87.30
27314;DHT22;14800;48.174;9.798;2023-10-31T08:53:45;12.00;87.10
27314;DHT22;14800;48.174;9.798;2023-10-31T08:56:11;12.00;86.90
27314;DHT22;14800;48.174;9.798;2023-10-31T08:58:36;12.10;86.90
27314;DHT22;14800;48.174;9.798;2023-10-31T09:01:02;12.10;86.80
27314;DHT22;14800;48.174;9.798;2023-10-31T09:03:27;12.10;86.60
27314;DHT22;14800;48.174;9.798;2023-10-31T09:05:53;12.10;86.70
27314;DHT22;14800;48.174;9.798;2023-10-31T09:08:19;12.10;86.60
27314;DHT22;14800;48.174;9.798;2023-10-31T09:10:44;12.20;86.60
27314;DHT22;14800;48.174;9.798;2023-10-31T09:13:11;12.20;86.60
27314;DHT22;14800;48.174;9.798;2023-10-31T09:15:37;12.20;86.60
27314;DHT22;14800;48.174;9.798;2023-10-31T09:18:04;12.30;86.60
27314;DHT22;14800;48.174;9.798;2023-10-31T09:20:29;12.30;86.50
27314;DHT22;14800;48.174;9.798;2023-10-31T09:22:55;12.30;86.50
27314;DHT22;14800;48.174;9.798;2023-10-31T09:25:21;12.40;86.20
27314;DHT22;14800;48.174;9.798;2023-10-31T09:27:47;12.40;86.20
27314;DHT22;14800;48.174;9.798;2023-10-31T09:30:12;12.50;86.20
27314;DHT22;14800;48.174;9.798;2023-10-31T09:32:38;12.50;86.20
27314;DHT22;14800;48.174;9.798;2023-10-31T09:35:04;12.60;86.00
27314;DHT22;14800;48.174;9.798;2023-10-31T09:37:29;12.60;86.00
27314;DHT22;14800;48.174;9.798;2023-10-31T09:39:55;12.60;86.00
27314;DHT22;14800;48.174;9.798;2023-10-31T09:42:21;12.60;85.50
27314;DHT22;14800;48.174;9.798;2023-10-31T09:44:46;12.70;85.50
27314;DHT22;14800;48.174;9.798;2023-10-31T09:47:12;12.70;85.40
27314;DHT22;14800;48.174;9.798;2023-10-31T09:49:38;12.70;85.40
27314;DHT22;14800;48.174;9.798;2023-10-31T09:52:03;12.80;85.30
27314;DHT22;14800;48.174;9.798;2023-10-31T09:54:29;12.80;85.10
27314;DHT22;14800;48.174;9.798;2023-10-31T09:56:55;12.80;85.10
27314;DHT22;14800;48.174;9.798;2023-10-31T09:59:21;12.90;85.00
27314;DHT22;14800;48.174;9.798;2023-10-31T10:01:46;12.90;84.80
27314;DHT22;14800;48.174;9.798;2023-10-31T10:04:12;12.90;84.60
27314;DHT22;14800;48.174;9.798;2023-10-31T10:06:50;12.90;84.50
27314;DHT22;14800;48.174;9.798;2023-10-31T10:09:16;13.00;83.90
27314;DHT22;14800;48.174;9.798;2023-10-31T10:11:41;12.90;84.20
27314;DHT22;14800;48.174;9.798;2023-10-31T10:14:07;13.00;84.20
27314;DHT22;14800;48.174;9.798;2023-10-31T10:16:34;13.00;84.30
27314;DHT22;14800;48.174;9.798;2023-10-31T10:19:21;13.00;84.40
27314;DHT22;14800;48.174;9.798;2023-10-31T10:21:55;13.10;83.30
27314;DHT22;14800;48.174;9.798;2023-10-31T10:24:22;13.10;84.00
27314;DHT22;14800;48.174;9.798;2023-10-31T10:26:48;13.10;84.10
27314;DHT22;14800;48.174;9.798;2023-10-31T10:29:14;13.20;83.90
27314;DHT22;14800;48.174;9.798;2023-10-31T10:31:41;13.20;84.00
27314;DHT22;14800;48.174;9.798;2023-10-31T10:34:11;13.20;83.90
27314;DHT22;14800;48.174;9.798;2023-10-31T10:36:38;13.30;83.80
27314;DHT22;14800;48.174;9.798;2023-10-31T10:39:06;13.30;83.60
27314;DHT22;14800;48.174;9.798;2023-10-31T10:41:34;13.40;83.60
27314;DHT22;14800;48.174;9.798;2023-10-31T10:44:07;13.40;83.70
27314;DHT22;14800;48.174;9.798;2023-10-31T10:46:35;13.40;83.50
27314;DHT22;14800;48.174;9.798;2023-10-31T10:49:05;13.40;83.60
27314;DHT22;14800;48.174;9.798;2023-10-31T10:51:53;13.50;83.40
27314;DHT22;14800;48.174;9.798;2023-10-31T10:54:32;13.60;82.70
27314;DHT22;14800;48.174;9.798;2023-10-31T10:57:15;13.60;83.20
27314;DHT22;14800;48.174;9.798;2023-10-31T10:59:43;13.70;82.90
27314;DHT22;14800;48.174;9.798;2023-10-31T11:02:14;13.70;83.20
27314;DHT22;14800;48.174;9.798;2023-10-31T11:04:42;13.70;83.00
27314;DHT22;14800;48.174;9.798;2023-10-31T11:07:08;13.70;82.40
27314;DHT22;14800;48.174;9.798;2023-10-31T11:09:34;13.80;82.30
27314;DHT22;14800;48.174;9.798;2023-10-31T11:12:00;13.80;82.20
27314;DHT22;14800;48.174;9.798;2023-10-31T11:14:27;13.80;82.20
27314;DHT22;14800;48.174;9.798;2023-10-31T11:16:58;13.80;82.20
27314;DHT22;14800;48.174;9.798;2023-10-31T11:19:26;13.80;82.20
27314;DHT22;14800;48.174;9.798;2023-10-31T11:22:00;13.80;82.00
27314;DHT22;14800;48.174;9.798;2023-10-31T11:24:36;13.80;82.10
27314;DHT22;14800;48.174;9.798;2023-10-31T11:27:04;13.80;82.20
27314;DHT22;14800;48.174;9.798;2023-10-31T11:29:31;13.80;82.40
27314;DHT22;14800;48.174;9.798;2023-10-31T11:31:57;13.80;82.70
27314;DHT22;14800;48.174;9.798;2023-10-31T11:34:26;13.70;82.90
27314;DHT22;14800;48.174;9.798;2023-10-31T11:36:53;13.70;83.60
27314;DHT22;14800;48.174;9.798;2023-10-31T11:39:20;13.70;84.00
27314;DHT22;14800;48.174;9.798;2023-10-31T11:41:55;13.70;84.20
27314;DHT22;14800;48.174;9.798;2023-10-31T11:44:27;13.60;84.20
27314;DHT22;14800;48.174;9.798;2023-10-31T11:46:53;13.70;83.90
27314;DHT22;14800;48.174;9.798;2023-10-31T11:49:47;13.70;84.60
27314;DHT22;14800;48.174;9.798;2023-10-31T11:52:17;13.70;83.60
27314;DHT22;14800;48.174;9.798;2023-10-31T11:54:42;13.60;83.70
27314;DHT22;14800;48.174;9.798;2023-10-31T11:57:08;13.70;83.80
27314;DHT22;14800;48.174;9.798;2023-10-31T11:59:38;13.70;83.90
27314;DHT22;14800;48.174;9.798;2023-10-31T12:02:16;13.70;83.80
27314;DHT22;14800;48.174;9.798;2023-10-31T12:04:43;13.70;83.80
27314;DHT22;14800;48.174;9.798;2023-10-31T12:07:09;13.70;84.10
27314;DHT22;14800;48.174;9.798;2023-10-31T12:09:48;13.70;84.10
27314;DHT22;14800;48.174;9.798;2023-10-31T12:12:14;13.80;83.60
27314;DHT22;14800;48.174;9.798;2023-10-31T12:14:40;13.70;83.70
27314;DHT22;14800;48.174;9.798;2023-10-31T12:17:06;13.80;83.60
27314;DHT22;14800;48.174;9.798;2023-10-31T12:19:36;13.80;83.40
27314;DHT22;14800;48.174;9.798;2023-10-31T12:22:02;13.80;83.40
27314;DHT22;14800;48.174;9.798;2023-10-31T12:24:28;13.80;83.40
27314;DHT22;14800;48.174;9.798;2023-10-31T12:26:54;13.80;83.40
27314;DHT22;14800;48.174;9.798;2023-10-31T12:29:20;13.80;83.50
27314;DHT22;14800;48.174;9.798;2023-10-31T12:31:51;13.90;83.70
27314;DHT22;14800;48.174;9.798;2023-10-31T12:34:24;13.80;83.60
27314;DHT22;14800;48.174;9.798;2023-10-31T12:36:54;13.90;83.40
27314;DHT22;14800;48.174;9.798;2023-10-31T12:39:25;13.90;83.00
27314;DHT22;14800;48.174;9.798;2023-10-31T12:41:54;13.90;82.90
27314;DHT22;14800;48.174;9.798;2023-10-31T12:44:24;14.00;83.20
27314;DHT22;14800;48.174;9.798;2023-10-31T12:46:50;14.00;82.70
27314;DHT22;14800;48.174;9.798;2023-10-31T12:49:18;14.00;82.90
27314;DHT22;14800;48.174;9.798;2023-10-31T12:54:37;14.00;82.00
27314;DHT22;14800;48.174;9.798;2023-10-31T12:57:07;14.10;82.20
27314;DHT22;14800;48.174;9.798;2023-10-31T12:59:34;14.10;82.20
27314;DHT22;14800;48.174;9.798;2023-10-31T13:02:01;14.10;83.30
27314;DHT22;14800;48.174;9.798;2023-10-31T13:04:30;14.10;82.40
27314;DHT22;14800;48.174;9.798;2023-10-31T13:07:06;14.10;82.10
27314;DHT22;14800;48.174;9.798;2023-10-31T13:09:34;14.10;81.80
27314;DHT22;14800;48.174;9.798;2023-10-31T13:12:02;14.20;82.00
27314;DHT22;14800;48.174;9.798;2023-10-31T13:14:28;14.20;81.80
27314;DHT22;14800;48.174;9.798;2023-10-31T13:16:54;14.20;81.30
27314;DHT22;14800;48.174;9.798;2023-10-31T13:19:20;14.10;81.20
27314;DHT22;14800;48.174;9.798;2023-10-31T13:21:47;14.10;81.20
27314;DHT22;14800;48.174;9.798;2023-10-31T13:24:13;14.20;81.20
27314;DHT22;14800;48.174;9.798;2023-10-31T13:26:38;14.20;81.30
27314;DHT22;14800;48.174;9.798;2023-10-31T13:29:04;14.20;81.20
27314;DHT22;14800;48.174;9.798;2023-10-31T13:31:30;14.20;81.20
27314;DHT22;14800;48.174;9.798;2023-10-31T13:33:55;14.30;81.20
27314;DHT22;14800;48.174;9.798;2023-10-31T13:36:21;14.20;80.70
27314;DHT22;14800;48.174;9.798;2023-10-31T13:38:47;14.20;80.60
27314;DHT22;14800;48.174;9.798;2023-10-31T13:41:14;14.30;80.60
27314;DHT22;14800;48.174;9.798;2023-10-31T13:43:39;14.30;80.60
27314;DHT22;14800;48.174;9.798;2023-10-31T13:46:05;14.30;80.60
27314;DHT22;14800;48.174;9.798;2023-10-31T13:48:31;14.30;80.70
27314;DHT22;14800;48.174;9.798;2023-10-31T13:50:57;14.30;80.90
27314;DHT22;14800;48.174;9.798;2023-10-31T13:53:23;14.30;81.20
27314;DHT22;14800;48.174;9.798;2023-10-31T13:55:48;14.30;81.30
27314;DHT22;14800;48.174;9.798;2023-10-31T13:58:14;14.20;81.30
27314;DHT22;14800;48.174;9.798;2023-10-31T14:00:40;14.30;81.30
27314;DHT22;14800;48.174;9.798;2023-10-31T14:03:05;14.30;81.20
27314;DHT22;14800;48.174;9.798;2023-10-31T14:05:31;14.30;81.40
27314;DHT22;14800;48.174;9.798;2023-10-31T14:07:57;14.30;81.70
27314;DHT22;14800;48.174;9.798;2023-10-31T14:10:23;14.30;81.30
27314;DHT22;14800;48.174;9.798;2023-10-31T14:12:49;14.40;80.80
27314;DHT22;14800;48.174;9.798;2023-10-31T14:15:15;14.40;80.70
27314;DHT22;14800;48.174;9.798;2023-10-31T14:17:41;14.40;80.30
27314;DHT22;14800;48.174;9.798;2023-10-31T14:20:07;14.40;80.10
27314;DHT22;14800;48.174;9.798;2023-10-31T14:22:33;14.40;79.80
27314;DHT22;14800;48.174;9.798;2023-10-31T14:24:58;14.40;79.90
27314;DHT22;14800;48.174;9.798;2023-10-31T14:27:24;14.40;79.80
27314;DHT22;14800;48.174;9.798;2023-10-31T14:29:50;14.40;79.80
27314;DHT22;14800;48.174;9.798;2023-10-31T14:32:17;14.30;79.80
27314;DHT22;14800;48.174;9.798;2023-10-31T14:34:43;14.30;79.70
27314;DHT22;14800;48.174;9.798;2023-10-31T14:37:09;14.30;79.70
27314;DHT22;14800;48.174;9.798;2023-10-31T14:39:34;14.30;79.70
27314;DHT22;14800;48.174;9.798;2023-10-31T14:42:00;14.30;79.80
27314;DHT22;14800;48.174;9.798;2023-10-31T14:44:26;14.20;79.70
27314;DHT22;14800;48.174;9.798;2023-10-31T14:46:51;14.20;79.60
27314;DHT22;14800;48.174;9.798;2023-10-31T14:49:17;14.20;79.80
27314;DHT22;14800;48.174;9.798;2023-10-31T14:51:42;14.20;79.80
27314;DHT22;14800;48.174;9.798;2023-10-31T14:54:08;14.20;79.80
27314;DHT22;14800;48.174;9.798;2023-10-31T14:56:34;14.20;80.00
27314;DHT22;14800;48.174;9.798;2023-10-31T14:59:01;14.20;79.80
27314;DHT22;14800;48.174;9.798;2023-10-31T15:01:29;14.10;79.80
27314;DHT22;14800;48.174;9.798;2023-10-31T15:03:55;14.10;80.00
27314;DHT22;14800;48.174;9.798;2023-10-31T15:06:21;14.10;80.10
27314;DHT22;14800;48.174;9.798;2023-10-31T15:08:47;14.10;80.30
27314;DHT22;14800;48.174;9.798;2023-10-31T15:11:13;14.00;80.50
27314;DHT22;14800;48.174;9.798;2023-10-31T15:13:41;14.00;80.60
27314;DHT22;14800;48.174;9.798;2023-10-31T15:16:07;14.00;81.00
27314;DHT22;14800;48.174;9.798;2023-10-31T15:18:32;14.00;81.00
27314;DHT22;14800;48.174;9.798;2023-10-31T15:20:58;13.90;81.10
27314;DHT22;14800;48.174;9.798;2023-10-31T15:23:24;13.90;81.30
27314;DHT22;14800;48.174;9.798;2023-10-31T15:25:52;13.90;81.50
27314;DHT22;14800;48.174;9.798;2023-10-31T15:28:18;13.90;81.80